Terminal Aerodrome Forecast
Issued by NWS Omaha/Valley, NE

Home | Current Version | Previous Version | Text Only | Print | Product List | Glossary Off
Versions: 1 2 3 4 5 6 7 8 9 10 11 12 13 14 15 16 17 18 19 20

000
FTUS43 KOAX 271158 AAA
TAFOFK
TAF AMD
KOFK 271158Z 2712/2812 30007KT P6SM SCT020 BKN035
      TEMPO 2712/2715 BKN020
     FM271500 32008KT P6SM BKN025
     FM271800 35006KT P6SM FEW030 SCT200
     FM272300 08004KT P6SM BKN100
     FM280800 06008KT P6SM OVC050
     FM281000 05009KT P6SM OVC035=

USA.gov is the U.S. government's official web portal to all federal, state and local government web resources and services.